createdAt,value
2018-08-25T00:00:06.864Z,70.98
2018-08-25T00:00:42.031Z,70.89
2018-08-25T00:01:17.492Z,71.08
2018-08-25T00:01:53.088Z,71.08
2018-08-25T00:02:28.432Z,71.17
2018-08-25T00:03:03.754Z,71.17
2018-08-25T00:03:39.126Z,70.70
2018-08-25T00:04:14.666Z,71.75
2018-08-25T00:04:49.948Z,71.46
2018-08-25T00:05:25.504Z,71.66
2018-08-25T00:06:00.915Z,71.46
2018-08-25T00:06:36.502Z,71.37
2018-08-25T00:07:12.250Z,71.56
2018-08-25T00:07:47.614Z,71.37
2018-08-25T00:08:22.940Z,71.37
2018-08-25T00:08:58.223Z,71.75
2018-08-25T00:09:33.711Z,71.75
2018-08-25T00:10:09.163Z,71.46
2018-08-25T00:10:44.498Z,71.56
2018-08-25T00:11:19.866Z,71.66
2018-08-25T00:11:55.204Z,71.94
2018-08-25T00:12:30.797Z,71.56
2018-08-25T00:13:06.013Z,71.94
2018-08-25T00:13:41.561Z,71.66
2018-08-25T00:14:16.777Z,71.56
2018-08-25T00:14:52.070Z,72.23
2018-08-25T00:15:27.741Z,71.75
2018-08-25T00:16:03.291Z,71.46
2018-08-25T00:16:38.864Z,72.23
2018-08-25T00:17:14.116Z,71.37
2018-08-25T00:17:49.876Z,72.13
2018-08-25T00:18:25.247Z,71.66
2018-08-25T00:19:01.075Z,71.75
2018-08-25T00:19:36.685Z,72.32
2018-08-25T00:20:11.929Z,72.23
2018-08-25T00:20:47.371Z,72.13
2018-08-25T00:21:22.513Z,72.32
2018-08-25T00:21:57.794Z,71.84
2018-08-25T00:22:33.156Z,72.42
2018-08-25T00:23:08.943Z,72.23
2018-08-25T00:23:44.690Z,72.32
2018-08-25T00:24:20.021Z,72.52
2018-08-25T00:24:55.559Z,72.23
2018-08-25T00:25:30.834Z,71.94
2018-08-25T00:26:06.305Z,72.32
2018-08-25T00:26:42.095Z,72.23
2018-08-25T00:27:17.517Z,72.13
2018-08-25T00:27:52.900Z,72.13
2018-08-25T00:28:28.119Z,71.94
2018-08-25T00:29:03.390Z,72.61
2018-08-25T00:29:39.437Z,72.23
2018-08-25T00:30:14.788Z,72.61
2018-08-25T00:30:50.333Z,72.29
2018-08-25T00:31:25.564Z,72.71
2018-08-25T00:32:01.133Z,72.61
2018-08-25T00:32:36.394Z,72.71
2018-08-25T00:33:11.716Z,72.52
2018-08-25T00:33:47.063Z,72.86
2018-08-25T00:34:22.222Z,73.15
2018-08-25T00:34:57.530Z,72.42
2018-08-25T00:35:33.176Z,72.71
2018-08-25T00:36:08.816Z,72.38
2018-08-25T00:36:44.475Z,73.05
2018-08-25T00:37:20.039Z,72.61
2018-08-25T00:37:55.182Z,73.05
2018-08-25T00:38:30.113Z,73.05
2018-08-25T00:39:05.576Z,73.05
2018-08-25T00:39:40.956Z,73.05
2018-08-25T00:40:16.277Z,72.96
2018-08-25T00:40:51.820Z,72.96
2018-08-25T00:41:27.345Z,72.99
2018-08-25T00:42:02.831Z,72.77
2018-08-25T00:42:38.887Z,72.67
2018-08-25T00:43:14.393Z,72.77
2018-08-25T00:43:50.295Z,72.77
2018-08-25T00:44:26.293Z,72.77
2018-08-25T00:45:01.745Z,73.15
2018-08-25T00:45:37.929Z,73.24
2018-08-25T00:46:13.359Z,72.96
2018-08-25T00:46:48.710Z,72.29
2018-08-25T00:47:24.234Z,72.48
2018-08-25T00:47:59.701Z,73.05
2018-08-25T00:48:35.240Z,73.05
2018-08-25T00:49:10.361Z,73.15
2018-08-25T00:49:45.724Z,72.96
2018-08-25T00:50:21.060Z,72.96
2018-08-25T00:50:56.518Z,72.77
2018-08-25T00:51:32.183Z,73.44
2018-08-25T00:52:07.851Z,72.86
2018-08-25T00:52:44.741Z,72.86
2018-08-25T00:53:20.207Z,72.86
2018-08-25T00:53:55.371Z,72.96
2018-08-25T00:54:30.908Z,72.67
2018-08-25T00:55:06.251Z,72.58
2018-08-25T00:55:41.594Z,73.34
2018-08-25T00:56:16.849Z,72.96
2018-08-25T00:56:52.657Z,72.67
2018-08-25T00:57:28.128Z,73.44
2018-08-25T00:58:03.422Z,72.96
2018-08-25T00:58:38.663Z,73.05
2018-08-25T00:59:13.985Z,73.72
2018-08-25T00:59:49.434Z,72.96
2018-08-25T01:00:24.975Z,73.24
2018-08-25T01:01:00.453Z,73.54
2018-08-25T01:01:36.152Z,72.96
2018-08-25T01:02:11.921Z,73.63
2018-08-25T01:02:47.762Z,73.05
2018-08-25T01:03:23.338Z,73.91
2018-08-25T01:03:59.685Z,73.24
2018-08-25T01:04:35.349Z,73.34
2018-08-25T01:05:10.702Z,73.24
2018-08-25T01:05:46.570Z,73.82
2018-08-25T01:06:21.749Z,74.01
2018-08-25T01:06:56.997Z,73.24
2018-08-25T01:07:32.676Z,74.20
2018-08-25T01:08:07.840Z,74.11
2018-08-25T01:08:43.416Z,73.91
2018-08-25T01:09:20.249Z,73.91
2018-08-25T01:09:56.064Z,74.01
2018-08-25T01:10:31.415Z,74.20
2018-08-25T01:11:06.781Z,73.72
2018-08-25T01:11:42.149Z,74.30
2018-08-25T01:12:18.266Z,74.11
2018-08-25T01:12:54.097Z,74.30
2018-08-25T01:13:29.551Z,74.58
2018-08-25T01:14:04.795Z,74.49
2018-08-25T01:14:40.269Z,74.40
2018-08-25T01:15:22.604Z,73.82
2018-08-25T01:15:58.188Z,74.11
2018-08-25T01:16:33.548Z,74.11
2018-08-25T01:17:09.252Z,74.30
2018-08-25T01:17:44.905Z,74.49
2018-08-25T01:18:20.562Z,74.68
2018-08-25T01:18:56.315Z,74.30
2018-08-25T01:19:31.856Z,74.30
2018-08-25T01:20:07.110Z,74.20
2018-08-25T01:20:43.066Z,74.40
2018-08-25T01:21:18.523Z,74.77
2018-08-25T01:21:54.512Z,74.30
2018-08-25T01:22:29.976Z,74.77
2018-08-25T01:23:05.453Z,75.07
2018-08-25T01:23:40.737Z,74.77
2018-08-25T01:24:16.196Z,74.77
2018-08-25T01:24:51.992Z,74.77
2018-08-25T01:25:27.323Z,74.87
2018-08-25T01:26:02.475Z,74.87
2018-08-25T01:26:38.037Z,74.97
2018-08-25T01:27:13.430Z,74.58
2018-08-25T01:27:48.982Z,74.77
2018-08-25T01:28:24.223Z,74.74
2018-08-25T01:28:59.681Z,74.49
2018-08-25T01:29:35.129Z,75.07
2018-08-25T01:30:10.365Z,75.16
2018-08-25T01:30:45.826Z,75.64
2018-08-25T01:31:21.782Z,75.45
2018-08-25T01:31:57.149Z,75.35
2018-08-25T01:32:32.796Z,75.35
2018-08-25T01:33:08.177Z,75.54
2018-08-25T01:33:43.644Z,75.45
2018-08-25T01:34:18.982Z,75.45
2018-08-25T01:34:54.132Z,76.02
2018-08-25T01:35:29.889Z,75.16
2018-08-25T01:36:05.268Z,75.89
2018-08-25T01:36:40.651Z,76.08
2018-08-25T01:37:16.209Z,75.73
2018-08-25T01:37:52.032Z,75.51
2018-08-25T01:38:27.454Z,75.54
2018-08-25T01:39:03.207Z,75.64
2018-08-25T01:39:38.587Z,75.70
2018-08-25T01:40:14.017Z,76.31
2018-08-25T01:40:49.573Z,76.08
2018-08-25T01:41:25.036Z,76.27
2018-08-25T01:42:00.427Z,75.89
2018-08-25T01:42:36.083Z,76.31
2018-08-25T01:43:11.531Z,76.21
2018-08-25T01:43:47.313Z,76.02
2018-08-25T01:44:22.894Z,76.31
2018-08-25T01:44:58.133Z,76.18
2018-08-25T01:45:33.504Z,76.27
2018-08-25T01:46:08.847Z,76.60
2018-08-25T01:46:44.197Z,76.37
2018-08-25T01:47:20.350Z,76.08
2018-08-25T01:47:55.783Z,76.27
2018-08-25T01:48:31.767Z,76.18
2018-08-25T01:49:07.116Z,76.46
2018-08-25T01:49:42.587Z,76.08
2018-08-25T01:50:17.835Z,76.84
2018-08-25T01:50:53.514Z,76.84
2018-08-25T01:51:28.797Z,76.56
2018-08-25T01:52:04.071Z,76.65
2018-08-25T01:52:39.448Z,76.84
2018-08-25T01:53:14.829Z,76.65
2018-08-25T01:53:50.113Z,76.75
2018-08-25T01:54:25.548Z,77.23
2018-08-25T01:55:00.729Z,76.84
2018-08-25T01:55:36.847Z,76.65
2018-08-25T01:56:13.272Z,76.84
2018-08-25T01:56:48.890Z,76.46
2018-08-25T01:57:24.216Z,77.33
2018-08-25T01:57:59.591Z,76.84
2018-08-25T01:58:34.948Z,76.84
2018-08-25T01:59:10.524Z,76.75
2018-08-25T01:59:46.118Z,77.42
2018-08-25T02:00:21.661Z,76.94
2018-08-25T02:00:57.266Z,76.94
2018-08-25T02:01:32.598Z,77.70
2018-08-25T02:02:07.841Z,76.94
2018-08-25T02:02:43.345Z,77.42
2018-08-25T02:03:18.843Z,77.04
2018-08-25T02:03:54.494Z,77.51
2018-08-25T02:04:29.877Z,76.94
2018-08-25T02:05:06.446Z,77.80
2018-08-25T02:05:41.682Z,76.94
2018-08-25T02:06:16.895Z,77.33
2018-08-25T02:06:51.810Z,76.94
2018-08-25T02:07:27.122Z,77.51
2018-08-25T02:08:02.352Z,77.33
2018-08-25T02:08:37.587Z,77.42
2018-08-25T02:09:13.339Z,77.33
2018-08-25T02:09:48.991Z,77.51
2018-08-25T02:10:24.288Z,77.61
2018-08-25T02:10:59.525Z,77.61
2018-08-25T02:11:34.728Z,77.23
2018-08-25T02:12:10.251Z,77.33
2018-08-25T02:12:45.610Z,77.33
2018-08-25T02:13:21.207Z,77.61
2018-08-25T02:13:56.648Z,77.51
2018-08-25T02:14:32.270Z,77.51
2018-08-25T02:15:07.559Z,77.04
2018-08-25T02:15:43.793Z,77.04
2018-08-25T02:16:19.364Z,76.94
2018-08-25T02:16:54.616Z,77.51
2018-08-25T02:17:30.277Z,77.51
2018-08-25T02:18:05.925Z,77.42
2018-08-25T02:18:41.273Z,77.04
2018-08-25T02:19:17.286Z,77.13
2018-08-25T02:19:52.333Z,77.23
2018-08-25T02:20:27.786Z,77.13
2018-08-25T02:21:04.126Z,77.23
2018-08-25T02:21:39.535Z,77.51
2018-08-25T02:22:14.914Z,76.94
2018-08-25T02:22:50.273Z,77.51
2018-08-25T02:23:25.935Z,77.42
2018-08-25T02:24:01.090Z,77.33
2018-08-25T02:24:36.619Z,77.42
2018-08-25T02:25:11.879Z,77.23
2018-08-25T02:25:47.184Z,77.42
2018-08-25T02:26:22.831Z,77.04
2018-08-25T02:26:58.114Z,77.42
2018-08-25T02:27:33.557Z,77.42
2018-08-25T02:28:09.216Z,77.13
2018-08-25T02:28:44.623Z,77.61
2018-08-25T02:29:19.924Z,77.23
2018-08-25T02:29:55.369Z,77.51
2018-08-25T02:30:30.478Z,77.04
2018-08-25T02:31:05.653Z,77.33
2018-08-25T02:31:40.872Z,77.23
2018-08-25T02:32:16.215Z,77.33
2018-08-25T02:32:51.869Z,77.42
2018-08-25T02:33:27.371Z,77.33
2018-08-25T02:34:02.493Z,77.13
2018-08-25T02:34:37.632Z,77.04
2018-08-25T02:35:13.262Z,77.33
2018-08-25T02:35:48.902Z,77.42
2018-08-25T02:36:24.227Z,77.33
2018-08-25T02:36:59.473Z,77.51
2018-08-25T02:37:34.999Z,77.80
2018-08-25T02:38:10.377Z,77.42
2018-08-25T02:38:45.803Z,77.13
2018-08-25T02:39:21.111Z,77.51
2018-08-25T02:39:56.582Z,76.65
2018-08-25T02:40:32.110Z,76.84
2018-08-25T02:41:07.360Z,76.56
2018-08-25T02:41:42.821Z,76.84
2018-08-25T02:42:18.089Z,77.13
2018-08-25T02:42:53.418Z,77.13
2018-08-25T02:43:28.936Z,77.23
2018-08-25T02:44:04.999Z,77.04
2018-08-25T02:44:40.218Z,77.51
2018-08-25T02:45:15.583Z,77.23
2018-08-25T02:45:50.968Z,77.13
2018-08-25T02:46:26.092Z,77.13
2018-08-25T02:47:01.876Z,77.51
2018-08-25T02:47:37.207Z,76.84
2018-08-25T02:48:12.892Z,77.61
2018-08-25T02:48:48.155Z,77.13
2018-08-25T02:49:23.589Z,77.23
2018-08-25T02:49:59.410Z,77.80
2018-08-25T02:50:36.023Z,77.51
2018-08-25T02:51:11.245Z,77.51
2018-08-25T02:51:47.386Z,77.42
2018-08-25T02:52:22.716Z,77.33
2018-08-25T02:52:58.187Z,77.42
2018-08-25T02:53:33.819Z,76.94
2018-08-25T02:54:09.532Z,77.23
2018-08-25T02:54:45.076Z,77.13
2018-08-25T02:55:20.383Z,77.61
2018-08-25T02:55:55.836Z,77.23
2018-08-25T02:56:31.248Z,77.42
2018-08-25T02:57:06.773Z,77.42
2018-08-25T02:57:42.282Z,77.70
2018-08-25T02:58:17.425Z,77.42
2018-08-25T02:58:52.538Z,77.33
2018-08-25T02:59:27.844Z,77.51
2018-08-25T03:00:03.206Z,77.70
2018-08-25T03:00:38.409Z,78.09
2018-08-25T03:01:13.688Z,77.80
2018-08-25T03:01:49.454Z,77.61
2018-08-25T03:02:24.811Z,77.99
2018-08-25T03:03:00.300Z,77.90
2018-08-25T03:03:36.041Z,78.38
2018-08-25T03:04:11.389Z,77.42
2018-08-25T03:04:46.953Z,78.09
2018-08-25T03:05:22.310Z,78.19
2018-08-25T03:05:57.776Z,77.42
2018-08-25T03:06:33.368Z,78.28
2018-08-25T03:07:09.076Z,78.57
2018-08-25T03:07:44.511Z,79.24
2018-08-25T03:08:20.119Z,79.14
2018-08-25T03:08:55.601Z,78.95
2018-08-25T03:09:31.091Z,79.14
2018-08-25T03:10:06.455Z,79.14
2018-08-25T03:10:41.585Z,78.28
2018-08-25T03:11:16.924Z,78.57
2018-08-25T03:11:52.082Z,79.14
2018-08-25T03:12:27.440Z,78.28
2018-08-25T03:13:03.215Z,79.14
2018-08-25T03:13:38.760Z,78.57
2018-08-25T03:14:13.980Z,79.72
2018-08-25T03:14:49.401Z,80.58
2018-08-25T03:15:24.761Z,82.49
2018-08-25T03:15:59.982Z,84.31
2018-08-25T03:16:35.400Z,84.59
2018-08-25T03:17:10.945Z,85.46
2018-08-25T03:17:46.475Z,86.04
2018-08-25T03:18:21.608Z,85.03
2018-08-25T03:18:56.982Z,86.47
2018-08-25T03:19:32.367Z,86.94
2018-08-25T03:20:07.386Z,87.23
2018-08-25T03:20:45.578Z,87.23
2018-08-25T03:21:20.916Z,88.38
2018-08-25T03:21:56.543Z,87.33
2018-08-25T03:22:31.552Z,88.19
2018-08-25T03:23:06.876Z,87.62
2018-08-25T03:23:42.491Z,87.62
2018-08-25T03:24:17.930Z,86.94
2018-08-25T03:24:53.130Z,86.94
2018-08-25T03:25:28.340Z,87.52
2018-08-25T03:26:03.747Z,88.00
2018-08-25T03:26:39.047Z,88.29
2018-08-25T03:27:14.377Z,88.19
2018-08-25T03:27:49.767Z,86.94
2018-08-25T03:28:25.225Z,86.66
2018-08-25T03:29:00.763Z,87.14
2018-08-25T03:29:36.007Z,86.47
2018-08-25T03:30:11.170Z,86.28
2018-08-25T03:30:46.579Z,86.94
2018-08-25T03:31:22.018Z,86.85
2018-08-25T03:31:57.341Z,87.52
2018-08-25T03:32:32.451Z,86.85
2018-08-25T03:33:08.185Z,86.94
2018-08-25T03:33:43.306Z,86.94
2018-08-25T03:34:18.549Z,87.23
2018-08-25T03:34:53.976Z,87.71
2018-08-25T03:35:29.279Z,88.00
2018-08-25T03:36:04.498Z,88.48
2018-08-25T03:36:40.998Z,89.01
2018-08-25T03:37:16.639Z,88.72
2018-08-25T03:37:52.879Z,90.44
2018-08-25T03:38:29.733Z,93.02
2018-08-25T03:39:05.153Z,94.36
2018-08-25T03:39:40.344Z,94.93
2018-08-25T03:40:15.401Z,94.84
2018-08-25T03:40:50.701Z,95.22
2018-08-25T03:41:25.928Z,96.56
2018-08-25T03:42:01.474Z,97.56
2018-08-25T03:42:37.558Z,97.56
2018-08-25T03:43:12.786Z,98.13
2018-08-25T03:43:47.987Z,99.28
2018-08-25T03:44:23.419Z,99.99
2018-08-25T03:44:59.072Z,99.99
2018-08-25T03:45:34.342Z,99.99
2018-08-25T03:46:09.989Z,99.99
2018-08-25T03:46:45.493Z,99.99
2018-08-25T03:47:20.644Z,99.99
2018-08-25T03:47:57.216Z,99.99
2018-08-25T03:48:32.538Z,99.99
2018-08-25T03:49:07.693Z,99.99
2018-08-25T03:49:43.136Z,67.52
2018-08-25T03:50:18.784Z,66.56
2018-08-25T03:50:53.962Z,63.99
2018-08-25T03:51:29.388Z,63.23
2018-08-25T03:52:04.740Z,63.23
2018-08-25T03:52:40.057Z,62.75
2018-08-25T03:53:15.429Z,62.37
2018-08-25T03:53:51.037Z,61.41
2018-08-25T03:54:26.171Z,60.74
2018-08-25T03:55:01.530Z,58.64
2018-08-25T03:55:37.190Z,55.87
2018-08-25T03:56:12.760Z,54.25
2018-08-25T03:56:48.081Z,56.45
2018-08-25T03:57:23.237Z,70.29
2018-08-25T03:57:58.666Z,89.20
2018-08-25T03:58:34.092Z,99.99
2018-08-25T03:59:09.256Z,99.99
2018-08-25T03:59:44.794Z,99.99
2018-08-25T04:00:20.232Z,99.99
2018-08-25T04:00:55.559Z,99.99
2018-08-25T04:01:31.331Z,99.99
2018-08-25T04:02:06.862Z,99.99
2018-08-25T04:02:42.363Z,99.99
2018-08-25T04:03:17.829Z,99.99
2018-08-25T04:03:53.028Z,99.99
2018-08-25T04:04:28.342Z,99.99
2018-08-25T04:05:03.708Z,99.99
2018-08-25T04:05:38.933Z,99.99
2018-08-25T04:06:13.965Z,99.99
2018-08-25T04:06:49.519Z,99.99
2018-08-25T04:07:24.755Z,99.99
2018-08-25T04:08:00.810Z,99.99
2018-08-25T04:08:36.353Z,99.99
2018-08-25T04:09:11.807Z,99.99
2018-08-25T04:09:47.337Z,99.99
2018-08-25T04:10:22.841Z,99.99
2018-08-25T04:10:58.358Z,99.99
2018-08-25T04:11:34.672Z,99.99
2018-08-25T04:12:10.239Z,99.99
2018-08-25T04:12:45.480Z,99.99
2018-08-25T04:13:20.952Z,99.99
2018-08-25T04:13:56.405Z,99.99
2018-08-25T04:14:31.847Z,99.99
2018-08-25T04:15:07.194Z,99.99
2018-08-25T04:15:42.590Z,99.99
2018-08-25T04:16:18.041Z,99.99
2018-08-25T04:16:53.585Z,99.99
2018-08-25T04:17:28.978Z,99.99
2018-08-25T04:18:04.639Z,99.99
2018-08-25T04:18:39.780Z,99.99
2018-08-25T04:19:15.132Z,99.99
2018-08-25T04:19:50.655Z,99.99
2018-08-25T04:20:25.903Z,99.99
2018-08-25T04:21:01.044Z,99.99
2018-08-25T04:21:36.376Z,99.99
2018-08-25T04:22:11.706Z,99.99
2018-08-25T04:22:46.989Z,99.99
2018-08-25T04:23:22.337Z,99.99
2018-08-25T04:23:57.544Z,99.99
2018-08-25T04:24:32.788Z,99.99
2018-08-25T04:25:08.154Z,99.99
2018-08-25T04:25:43.775Z,99.99
2018-08-25T04:26:19.107Z,99.99
2018-08-25T04:26:54.522Z,99.99
2018-08-25T04:27:29.850Z,99.99
2018-08-25T04:28:05.231Z,99.99
2018-08-25T04:28:40.641Z,99.99
2018-08-25T04:29:16.964Z,99.99
2018-08-25T04:29:52.598Z,99.99
2018-08-25T04:30:28.833Z,99.99
2018-08-25T04:31:04.304Z,99.99
2018-08-25T04:31:39.821Z,99.99
2018-08-25T04:32:15.467Z,99.99
2018-08-25T04:32:50.691Z,99.99
2018-08-25T04:33:26.475Z,99.99
2018-08-25T04:34:01.817Z,99.99
2018-08-25T04:34:37.485Z,99.99
2018-08-25T04:35:13.073Z,99.99
2018-08-25T04:35:49.094Z,99.99
2018-08-25T04:36:24.529Z,99.99
2018-08-25T04:36:59.853Z,99.99
2018-08-25T04:37:35.116Z,99.99
2018-08-25T04:38:10.445Z,99.99
2018-08-25T04:38:45.939Z,99.99
2018-08-25T04:39:21.681Z,99.99
2018-08-25T04:39:56.931Z,99.99
2018-08-25T04:40:32.104Z,99.99
2018-08-25T04:41:07.697Z,99.99
2018-08-25T04:41:42.763Z,99.99
2018-08-25T04:42:18.206Z,99.99
2018-08-25T04:42:53.500Z,99.99
2018-08-25T04:43:29.021Z,99.99
2018-08-25T04:44:04.863Z,99.99
2018-08-25T04:44:40.797Z,99.99
2018-08-25T04:45:16.093Z,99.99
2018-08-25T04:45:51.336Z,99.99
2018-08-25T04:46:26.872Z,99.99
2018-08-25T04:47:02.098Z,99.99
2018-08-25T04:47:37.297Z,99.99
2018-08-25T04:48:12.686Z,99.99
2018-08-25T04:48:48.140Z,99.99
2018-08-25T04:49:23.467Z,99.99
2018-08-25T04:49:58.927Z,99.99
2018-08-25T04:50:34.550Z,99.99
2018-08-25T04:51:10.000Z,99.99
2018-08-25T04:51:45.445Z,99.99
2018-08-25T04:52:21.084Z,99.99
2018-08-25T04:52:56.329Z,99.99
2018-08-25T04:53:31.575Z,99.99
2018-08-25T04:54:06.917Z,99.99
2018-08-25T04:54:43.599Z,99.99
2018-08-25T04:55:18.854Z,99.99
2018-08-25T04:55:54.863Z,99.99
2018-08-25T04:56:30.199Z,99.99
2018-08-25T04:57:05.517Z,99.99
2018-08-25T04:57:40.904Z,99.99
2018-08-25T04:58:16.327Z,99.99
2018-08-25T04:58:51.827Z,99.99
2018-08-25T04:59:27.292Z,99.99
2018-08-25T05:00:02.932Z,99.99
2018-08-25T05:00:38.541Z,99.99
2018-08-25T05:01:14.005Z,99.99
2018-08-25T05:01:50.170Z,99.99
2018-08-25T05:02:25.612Z,99.99
2018-08-25T05:03:01.135Z,99.99
2018-08-25T05:03:36.668Z,99.99
2018-08-25T05:04:12.112Z,99.99
2018-08-25T05:04:47.445Z,99.99
2018-08-25T05:05:22.738Z,99.99
2018-08-25T05:05:58.007Z,99.99
2018-08-25T05:06:33.559Z,99.99
2018-08-25T05:07:08.981Z,99.99
2018-08-25T05:07:44.270Z,99.99
2018-08-25T05:08:19.665Z,99.99
2018-08-25T05:08:55.142Z,99.99
2018-08-25T05:09:30.487Z,99.99
2018-08-25T05:10:05.942Z,99.99
2018-08-25T05:10:41.222Z,99.99
2018-08-25T05:11:16.539Z,99.99
2018-08-25T05:11:51.911Z,99.99
2018-08-25T05:12:27.477Z,99.99
2018-08-25T05:13:02.906Z,99.99
2018-08-25T05:13:38.499Z,99.99
2018-08-25T05:14:14.892Z,99.99
2018-08-25T05:14:50.559Z,99.99
2018-08-25T05:15:26.297Z,99.99
2018-08-25T05:16:01.780Z,99.99
2018-08-25T05:16:38.057Z,99.99
2018-08-25T05:17:13.554Z,99.99
2018-08-25T05:17:49.023Z,99.99
2018-08-25T05:18:24.361Z,99.99
2018-08-25T05:18:59.792Z,99.99
2018-08-25T05:19:35.059Z,99.99
2018-08-25T05:20:10.573Z,99.99
2018-08-25T05:20:45.807Z,99.99
2018-08-25T05:21:21.362Z,99.99
2018-08-25T05:21:56.729Z,99.99
2018-08-25T05:22:32.170Z,99.99
2018-08-25T05:23:07.830Z,99.99
2018-08-25T05:23:43.085Z,99.99
2018-08-25T05:24:18.541Z,99.99
2018-08-25T05:24:53.795Z,99.99
2018-08-25T05:25:29.338Z,99.99
2018-08-25T05:26:04.761Z,99.99
2018-08-25T05:26:41.936Z,99.99
2018-08-25T05:27:17.074Z,99.99
2018-08-25T05:27:52.123Z,99.99
2018-08-25T05:28:27.462Z,99.99
2018-08-25T05:29:02.772Z,99.99
2018-08-25T05:29:38.030Z,99.99
2018-08-25T05:30:13.357Z,99.99
2018-08-25T05:30:49.481Z,99.99
2018-08-25T05:31:25.127Z,99.99
2018-08-25T05:32:00.877Z,99.99
2018-08-25T05:32:36.312Z,99.99
2018-08-25T05:33:11.345Z,99.99
2018-08-25T05:33:46.810Z,99.99
2018-08-25T05:34:22.434Z,99.99
2018-08-25T05:34:58.107Z,99.99
2018-08-25T05:35:33.568Z,99.99
2018-08-25T05:36:08.891Z,99.99
2018-08-25T05:36:44.142Z,99.99
2018-08-25T05:37:19.519Z,99.99
2018-08-25T05:37:54.955Z,99.99
2018-08-25T05:38:30.327Z,99.99
2018-08-25T05:39:05.672Z,99.99
2018-08-25T05:39:41.396Z,99.99
2018-08-25T05:40:16.765Z,99.99
2018-08-25T05:40:52.317Z,99.99
2018-08-25T05:41:27.766Z,99.99
2018-08-25T05:42:03.234Z,99.99
2018-08-25T05:42:39.314Z,99.99
2018-08-25T05:43:14.779Z,99.99
2018-08-25T05:43:50.122Z,99.99
2018-08-25T05:44:25.441Z,99.99
2018-08-25T05:45:01.090Z,99.99
2018-08-25T05:45:36.521Z,99.99
2018-08-25T05:46:12.674Z,99.99
2018-08-25T05:46:48.141Z,99.99
2018-08-25T05:47:23.483Z,99.99
2018-08-25T05:47:59.150Z,99.99
2018-08-25T05:48:34.561Z,99.99
2018-08-25T05:49:09.838Z,99.99
2018-08-25T05:49:45.397Z,99.99
2018-08-25T05:50:20.713Z,99.99
2018-08-25T05:50:55.895Z,99.99
2018-08-25T05:51:31.248Z,99.99
2018-08-25T05:52:06.684Z,99.99
2018-08-25T05:52:42.033Z,99.99
2018-08-25T05:53:17.618Z,99.99
2018-08-25T05:53:53.585Z,99.99
2018-08-25T05:54:29.010Z,99.99
2018-08-25T05:55:05.268Z,99.99
2018-08-25T05:55:40.584Z,99.99
2018-08-25T05:56:16.020Z,99.99
2018-08-25T05:56:51.179Z,99.99
2018-08-25T05:57:26.692Z,99.99
2018-08-25T05:58:02.342Z,99.99
2018-08-25T05:58:38.411Z,99.99
2018-08-25T05:59:13.863Z,99.99
2018-08-25T05:59:49.214Z,99.99
2018-08-25T06:00:24.526Z,99.99
2018-08-25T06:00:59.900Z,99.99
2018-08-25T06:01:36.690Z,99.99
2018-08-25T06:02:11.938Z,99.99
2018-08-25T06:02:47.410Z,99.99
2018-08-25T06:03:22.729Z,99.99
2018-08-25T06:03:58.004Z,99.99
2018-08-25T06:04:33.429Z,99.99
2018-08-25T06:05:09.000Z,99.99
2018-08-25T06:05:44.647Z,99.99
2018-08-25T06:06:20.063Z,99.99
2018-08-25T06:06:55.525Z,99.99
2018-08-25T06:07:30.946Z,99.99
2018-08-25T06:08:06.184Z,99.99
2018-08-25T06:08:41.502Z,99.99
2018-08-25T06:09:16.777Z,99.99
2018-08-25T06:09:52.155Z,99.99
2018-08-25T06:10:27.678Z,99.99
2018-08-25T06:11:02.931Z,99.99
2018-08-25T06:11:38.364Z,99.99
2018-08-25T06:12:13.827Z,99.99
2018-08-25T06:12:49.274Z,99.99
2018-08-25T06:13:24.412Z,99.99
2018-08-25T06:13:59.704Z,99.99
2018-08-25T06:14:35.148Z,99.99
2018-08-25T06:15:10.604Z,99.99
2018-08-25T06:15:45.858Z,99.99
2018-08-25T06:16:21.211Z,99.99
2018-08-25T06:16:56.450Z,99.99
2018-08-25T06:17:31.793Z,99.99
2018-08-25T06:18:07.109Z,99.99
2018-08-25T06:18:42.570Z,99.99
2018-08-25T06:19:18.073Z,99.99
2018-08-25T06:19:53.618Z,99.99
2018-08-25T06:20:28.842Z,99.99
2018-08-25T06:21:04.290Z,99.99
2018-08-25T06:21:39.701Z,99.99
2018-08-25T06:22:15.441Z,99.99
2018-08-25T06:22:50.678Z,99.99
2018-08-25T06:23:25.934Z,99.99
2018-08-25T06:24:01.393Z,99.99
2018-08-25T06:24:36.635Z,99.99
2018-08-25T06:25:11.827Z,99.99
2018-08-25T06:25:47.671Z,99.99
2018-08-25T06:26:23.124Z,99.99
2018-08-25T06:26:58.490Z,99.99
2018-08-25T06:27:33.721Z,99.99
2018-08-25T06:28:09.100Z,99.99
2018-08-25T06:28:44.253Z,99.99
2018-08-25T06:29:19.769Z,99.99
2018-08-25T06:29:55.179Z,99.99
2018-08-25T06:30:30.631Z,99.99
2018-08-25T06:31:06.172Z,99.99
2018-08-25T06:31:41.799Z,99.99
2018-08-25T06:32:17.152Z,99.99
2018-08-25T06:32:52.585Z,99.99
2018-08-25T06:33:28.006Z,99.99
2018-08-25T06:34:03.439Z,99.99
2018-08-25T06:34:38.864Z,99.99
2018-08-25T06:35:14.659Z,99.99
2018-08-25T06:35:50.034Z,99.99
2018-08-25T06:36:25.562Z,99.99
2018-08-25T06:37:00.908Z,99.99
2018-08-25T06:37:36.256Z,99.99
2018-08-25T06:38:11.601Z,99.99
2018-08-25T06:38:46.961Z,99.99
2018-08-25T06:39:22.191Z,99.99
2018-08-25T06:39:57.556Z,99.99
2018-08-25T06:40:32.800Z,99.99
2018-08-25T06:41:08.043Z,99.99
2018-08-25T06:41:43.373Z,99.99
2018-08-25T06:42:19.214Z,99.99
2018-08-25T06:42:54.371Z,99.99
2018-08-25T06:43:29.593Z,99.99
2018-08-25T06:44:04.911Z,99.99
2018-08-25T06:44:40.231Z,99.99
2018-08-25T06:45:15.658Z,99.99
2018-08-25T06:45:51.205Z,99.99
2018-08-25T06:46:26.675Z,99.99
2018-08-25T06:47:02.399Z,99.99
2018-08-25T06:47:37.809Z,99.99
2018-08-25T06:48:13.272Z,99.99
2018-08-25T06:48:48.478Z,99.99
2018-08-25T06:49:23.932Z,99.99
2018-08-25T06:49:59.381Z,99.99
2018-08-25T06:50:34.895Z,99.99
2018-08-25T06:51:10.259Z,99.99
2018-08-25T06:51:45.610Z,99.99
2018-08-25T06:52:21.338Z,99.99
2018-08-25T06:52:56.578Z,99.99
2018-08-25T06:53:31.813Z,99.99
2018-08-25T06:54:07.183Z,99.99
2018-08-25T06:54:42.704Z,99.99
2018-08-25T06:55:18.249Z,99.99
2018-08-25T06:55:53.962Z,99.99
2018-08-25T06:56:29.396Z,99.99
2018-08-25T06:57:04.981Z,99.99
2018-08-25T06:57:40.593Z,99.99
2018-08-25T06:58:16.327Z,99.99
2018-08-25T06:58:51.675Z,99.99
2018-08-25T06:59:27.174Z,99.99
2018-08-25T07:00:02.496Z,99.99
2018-08-25T07:00:39.028Z,99.99
2018-08-25T07:01:15.055Z,99.99
2018-08-25T07:01:50.588Z,99.99
2018-08-25T07:02:26.057Z,99.99
2018-08-25T07:03:01.596Z,99.99
2018-08-25T07:03:37.213Z,99.99
2018-08-25T07:04:12.453Z,99.99
2018-08-25T07:04:47.850Z,99.99
2018-08-25T07:05:23.502Z,99.99
2018-08-25T07:05:59.214Z,99.99
2018-08-25T07:06:34.463Z,99.99
2018-08-25T07:07:09.913Z,99.99
2018-08-25T07:07:45.286Z,99.99
2018-08-25T07:08:20.716Z,99.99
2018-08-25T07:08:56.060Z,99.99
2018-08-25T07:09:31.772Z,99.99
2018-08-25T07:10:07.018Z,99.99
2018-08-25T07:10:42.456Z,99.99
2018-08-25T07:11:17.917Z,99.99
2018-08-25T07:11:53.260Z,99.99
2018-08-25T07:12:28.723Z,99.99
2018-08-25T07:13:03.921Z,99.99
2018-08-25T07:13:39.457Z,99.99
2018-08-25T07:14:14.509Z,99.99
2018-08-25T07:14:49.911Z,99.99
2018-08-25T07:15:25.246Z,99.99
2018-08-25T07:16:00.685Z,99.99
2018-08-25T07:16:36.300Z,99.99
2018-08-25T07:17:11.550Z,99.99
2018-08-25T07:17:47.154Z,99.99
2018-08-25T07:18:22.750Z,99.99
2018-08-25T07:18:57.985Z,99.99
2018-08-25T07:19:33.593Z,99.99
2018-08-25T07:20:09.265Z,99.99
2018-08-25T07:20:45.311Z,99.99
2018-08-25T07:21:20.658Z,98.91
2018-08-25T07:21:56.321Z,99.00
2018-08-25T07:22:33.036Z,99.87
2018-08-25T07:23:08.475Z,98.62
2018-08-25T07:23:44.311Z,98.81
2018-08-25T07:24:19.707Z,98.81
2018-08-25T07:24:54.924Z,98.71
2018-08-25T07:25:30.355Z,98.91
2018-08-25T07:26:05.846Z,98.14
2018-08-25T07:26:41.448Z,98.52
2018-08-25T07:27:16.515Z,99.15
2018-08-25T07:27:52.142Z,98.00
2018-08-25T07:28:27.275Z,97.13
2018-08-25T07:29:02.537Z,99.15
2018-08-25T07:29:37.975Z,99.91
2018-08-25T07:30:13.210Z,99.57
2018-08-25T07:30:48.819Z,99.72
2018-08-25T07:31:24.212Z,99.91
2018-08-25T07:31:59.720Z,99.52
2018-08-25T07:32:35.209Z,98.95
2018-08-25T07:33:10.434Z,98.76
2018-08-25T07:33:45.637Z,99.05
2018-08-25T07:34:21.099Z,99.81
2018-08-25T07:34:56.407Z,99.82
2018-08-25T07:35:31.832Z,99.91
2018-08-25T07:36:07.080Z,98.00
2018-08-25T07:36:42.580Z,96.94